»·PEaware :: N736PM KJAC-KGPI

N736PM :: KJAC-KGPI

FLIGHT INFORMATION

Flight Status: Arrived
Operator: Privately registered:
United States
More flights under this callsign
Pilot: Paul A. (20189)
Aircraft: BOEING 737-600
(B736)
More flights by this aircraft type
Origin: KJAC Jackson Hole
United States
Destination: KGPI Glacier Park Intl
United States
More flights between these airports :: More routes between these airports
Route: ALPIN2 IDA DBS CPN FCA
File this flight plan on PilotEdge
Remarks:
Altitude:
(Current/Filed)
38,000ft
Speed:
(Current/Filed)
455kts
Departed: 14-Oct-18 05:20 PM
Arrived: 14-Oct-18 06:28 PM
Distance/Time
Traveled:
318nm/1:08
Distance/Time
To Go:
Arrived

Flight Plot

Page will automatically refresh every two minutes.

Flight plan parsing failed; only flown route is shown


Map Options




Map Legend


Flown Route
Filed Route
Departure Airport
Arrival Airport
Navaid (VOR, NDB)
Fix

Horizontal Profiles

Position Reports

Time Latitude Longitude Heading Altitude Ground
Speed
14-Oct-18 17:04 43.599791 -110.738629 110 6459ft 0kts
14-Oct-18 17:05 43.599791 -110.738629 110 6459ft 0kts
14-Oct-18 17:06 43.599791 -110.738629 110 6459ft 0kts
14-Oct-18 17:07 43.599791 -110.738629 110 6459ft 0kts
14-Oct-18 17:08 43.599791 -110.738629 110 6459ft 0kts
14-Oct-18 17:09 43.599791 -110.738629 110 6459ft 0kts
14-Oct-18 17:10 43.599791 -110.738629 110 6459ft 0kts
14-Oct-18 17:11 43.599791 -110.738629 110 6459ft 0kts
14-Oct-18 17:12 43.599791 -110.738628 110 6459ft 0kts
14-Oct-18 17:13 43.599791 -110.738628 110 6459ft 0kts
14-Oct-18 17:14 43.599791 -110.738626 110 6459ft 0kts
14-Oct-18 17:15 43.599790 -110.738625 110 6459ft 0kts
14-Oct-18 17:16 43.599789 -110.738620 110 6459ft 0kts
14-Oct-18 17:17 43.600118 -110.738164 22 6459ft 9kts
14-Oct-18 17:18 43.604341 -110.737645 19 6459ft 21kts
14-Oct-18 17:19 43.610348 -110.734718 19 6459ft 23kts
14-Oct-18 17:20 43.614883 -110.732633 332 6459ft 0kts
14-Oct-18 17:21 43.615202 -110.733333 285 6459ft 13kts
14-Oct-18 17:22 43.590998 -110.747184 205 8065ft 148kts
14-Oct-18 17:23 43.541715 -110.779121 206 10673ft 269kts
14-Oct-18 17:24 43.469080 -110.826472 207 14727ft 320kts
14-Oct-18 17:25 43.376883 -110.886167 206 17777ft 398kts
14-Oct-18 17:26 43.274132 -110.956884 220 21376ft 427kts
14-Oct-18 17:27 43.234632 -111.101046 287 24594ft 412kts
14-Oct-18 17:28 43.278932 -111.245376 301 27571ft 419kts
14-Oct-18 17:29 43.330256 -111.391865 301 30024ft 437kts
14-Oct-18 17:30 43.376847 -111.550246 298 32103ft 453kts
14-Oct-18 17:31 43.422006 -111.710348 297 34604ft 445kts
14-Oct-18 17:32 43.465862 -111.869114 296 36636ft 442kts
14-Oct-18 17:33 43.503212 -111.999377 304 38216ft 432kts
14-Oct-18 17:34 43.602368 -112.081372 345 38409ft 434kts
14-Oct-18 17:35 43.741635 -112.120321 350 38397ft 435kts
14-Oct-18 17:36 43.838014 -112.144877 350 38398ft 416kts
14-Oct-18 17:37 43.952396 -112.174138 350 38389ft 418kts
14-Oct-18 17:38 44.084848 -112.208251 350 38387ft 415kts
14-Oct-18 17:39 44.179315 -112.233484 350 38384ft 414kts
14-Oct-18 17:40 44.292008 -112.264002 350 38391ft 411kts
14-Oct-18 17:41 44.404769 -112.294526 350 38396ft 414kts
14-Oct-18 17:42 44.517234 -112.324892 350 38394ft 407kts
14-Oct-18 17:43 44.629532 -112.355376 350 38393ft 406kts
14-Oct-18 17:44 44.741307 -112.385912 350 38392ft 411kts
14-Oct-18 17:45 44.852456 -112.416258 351 38387ft 403kts
14-Oct-18 17:46 44.962538 -112.446719 350 38382ft 403kts
14-Oct-18 17:47 45.072965 -112.477218 351 38371ft 400kts
14-Oct-18 17:48 45.182756 -112.507497 351 38368ft 403kts
14-Oct-18 17:49 45.292344 -112.538265 351 38370ft 398kts
14-Oct-18 17:50 45.401042 -112.568825 351 38373ft 400kts
14-Oct-18 17:51 45.509682 -112.599167 351 38375ft 397kts
14-Oct-18 17:52 45.617924 -112.629592 351 38381ft 393kts
14-Oct-18 17:53 45.725911 -112.660204 351 38383ft 397kts
14-Oct-18 17:54 45.834585 -112.691097 351 38387ft 397kts
14-Oct-18 17:55 45.942298 -112.721777 351 38389ft 395kts
14-Oct-18 17:56 46.049233 -112.759518 342 38390ft 397kts
14-Oct-18 17:57 46.150958 -112.822176 340 38387ft 398kts
14-Oct-18 17:58 46.252886 -112.886742 341 38391ft 401kts
14-Oct-18 17:59 46.354440 -112.951157 341 38392ft 397kts
14-Oct-18 18:00 46.455200 -113.014912 341 38390ft 394kts
14-Oct-18 18:01 46.555865 -113.078953 341 38394ft 394kts
14-Oct-18 18:02 46.656318 -113.143222 341 38399ft 395kts
14-Oct-18 18:03 46.756921 -113.207749 341 38396ft 395kts
14-Oct-18 18:04 46.857766 -113.272966 341 37908ft 392kts
14-Oct-18 18:05 46.957024 -113.337346 342 36909ft 390kts
14-Oct-18 18:06 47.056187 -113.401893 342 35907ft 388kts
14-Oct-18 18:07 47.171255 -113.477129 343 34741ft 387kts
14-Oct-18 18:08 47.253348 -113.531029 343 33907ft 386kts
14-Oct-18 18:09 47.351809 -113.595905 342 32910ft 390kts
14-Oct-18 18:10 47.451493 -113.661875 342 31909ft 394kts
14-Oct-18 18:11 47.550780 -113.727853 341 30908ft 388kts
14-Oct-18 18:12 47.648888 -113.793319 340 29905ft 383kts
14-Oct-18 18:13 47.745544 -113.858088 340 28904ft 379kts
14-Oct-18 18:14 47.802290 -113.983730 283 27175ft 409kts
14-Oct-18 18:15 47.824487 -114.139872 284 24800ft 370kts
14-Oct-18 18:16 47.839772 -114.285977 287 21671ft 349kts
14-Oct-18 18:17 47.859723 -114.450105 287 17321ft 342kts
14-Oct-18 18:18 47.856232 -114.565106 239 14133ft 359kts
14-Oct-18 18:19 47.812725 -114.671937 295 12026ft 279kts
14-Oct-18 18:20 47.874810 -114.683333 25 10269ft 265kts
14-Oct-18 18:21 47.938483 -114.631913 25 9568ft 252kts
14-Oct-18 18:22 47.997873 -114.578892 32 8940ft 249kts
14-Oct-18 18:23 48.051564 -114.523978 32 8432ft 212kts
14-Oct-18 18:24 48.098688 -114.475362 33 7693ft 203kts
14-Oct-18 18:25 48.144796 -114.427661 34 6624ft 199kts
14-Oct-18 18:26 48.189505 -114.381314 35 5578ft 183kts
14-Oct-18 18:27 48.229126 -114.340168 34 4667ft 167kts
14-Oct-18 18:28 48.264774 -114.303090 34 3829ft 137kts
14-Oct-18 18:29 48.294179 -114.272429 35 3141ft 116kts
14-Oct-18 18:30 48.307959 -114.256930 120 2973ft 11kts
14-Oct-18 18:31 48.310055 -114.252764 43 2973ft 8kts

Navigation Log

Ident Type
Flight plan parsing failed, navigation log unavailable